sensor_id;sensor_type;location;lat;lon;timestamp;P1;durP1;ratioP1;P2;durP2;ratioP2
18793;SDS011;29610;49.022;12.114;2023-02-01T00:01:48;10.67;;;4.40;;
18793;SDS011;29610;49.022;12.114;2023-02-01T00:04:17;10.90;;;3.90;;
18793;SDS011;29610;49.022;12.114;2023-02-01T00:06:45;7.80;;;4.37;;
18793;SDS011;29610;49.022;12.114;2023-02-01T00:09:14;8.80;;;3.33;;
18793;SDS011;29610;49.022;12.114;2023-02-01T00:11:44;7.50;;;3.80;;
18793;SDS011;29610;49.022;12.114;2023-02-01T00:14:13;7.93;;;3.73;;
18793;SDS011;29610;49.022;12.114;2023-02-01T00:16:42;8.70;;;4.27;;
18793;SDS011;29610;49.022;12.114;2023-02-01T00:19:12;7.40;;;3.50;;
18793;SDS011;29610;49.022;12.114;2023-02-01T00:21:43;8.40;;;4.10;;
18793;SDS011;29610;49.022;12.114;2023-02-01T00:24:12;12.83;;;5.03;;
18793;SDS011;29610;49.022;12.114;2023-02-01T00:26:41;10.70;;;4.73;;
18793;SDS011;29610;49.022;12.114;2023-02-01T00:29:14;10.00;;;4.10;;
18793;SDS011;29610;49.022;12.114;2023-02-01T00:31:45;10.07;;;4.83;;
18793;SDS011;29610;49.022;12.114;2023-02-01T00:34:17;9.27;;;4.30;;
18793;SDS011;29610;49.022;12.114;2023-02-01T00:36:47;9.30;;;4.27;;
18793;SDS011;29610;49.022;12.114;2023-02-01T00:39:16;9.17;;;4.57;;
18793;SDS011;29610;49.022;12.114;2023-02-01T00:41:45;10.87;;;4.37;;
18793;SDS011;29610;49.022;12.114;2023-02-01T00:44:15;12.17;;;4.20;;
18793;SDS011;29610;49.022;12.114;2023-02-01T00:46:44;8.47;;;4.07;;
18793;SDS011;29610;49.022;12.114;2023-02-01T00:49:13;7.40;;;3.93;;
18793;SDS011;29610;49.022;12.114;2023-02-01T00:51:41;11.20;;;4.80;;
18793;SDS011;29610;49.022;12.114;2023-02-01T00:54:10;10.77;;;4.47;;
18793;SDS011;29610;49.022;12.114;2023-02-01T00:56:38;8.30;;;4.37;;
18793;SDS011;29610;49.022;12.114;2023-02-01T00:59:07;10.93;;;4.93;;
18793;SDS011;29610;49.022;12.114;2023-02-01T01:01:39;9.93;;;4.97;;
18793;SDS011;29610;49.022;12.114;2023-02-01T01:04:08;8.17;;;4.40;;
18793;SDS011;29610;49.022;12.114;2023-02-01T01:06:37;10.03;;;5.07;;
18793;SDS011;29610;49.022;12.114;2023-02-01T01:09:06;10.80;;;4.50;;
18793;SDS011;29610;49.022;12.114;2023-02-01T01:11:36;9.80;;;5.00;;
18793;SDS011;29610;49.022;12.114;2023-02-01T01:14:06;12.90;;;5.43;;
18793;SDS011;29610;49.022;12.114;2023-02-01T01:16:37;11.07;;;4.63;;
18793;SDS011;29610;49.022;12.114;2023-02-01T01:19:07;10.80;;;5.20;;
18793;SDS011;29610;49.022;12.114;2023-02-01T01:21:35;11.13;;;5.13;;
18793;SDS011;29610;49.022;12.114;2023-02-01T01:24:04;11.30;;;4.80;;
18793;SDS011;29610;49.022;12.114;2023-02-01T01:26:33;14.80;;;5.70;;
18793;SDS011;29610;49.022;12.114;2023-02-01T01:29:02;12.50;;;5.60;;
18793;SDS011;29610;49.022;12.114;2023-02-01T01:31:31;9.63;;;5.10;;
18793;SDS011;29610;49.022;12.114;2023-02-01T01:34:00;10.73;;;5.30;;
18793;SDS011;29610;49.022;12.114;2023-02-01T01:36:30;10.07;;;5.13;;
18793;SDS011;29610;49.022;12.114;2023-02-01T01:38:59;12.57;;;5.20;;
18793;SDS011;29610;49.022;12.114;2023-02-01T01:41:29;9.20;;;4.50;;
18793;SDS011;29610;49.022;12.114;2023-02-01T01:47:26;10.20;;;5.57;;
18793;SDS011;29610;49.022;12.114;2023-02-01T01:49:59;9.70;;;5.03;;
18793;SDS011;29610;49.022;12.114;2023-02-01T01:52:31;10.73;;;5.33;;
18793;SDS011;29610;49.022;12.114;2023-02-01T01:55:01;16.67;;;5.27;;
18793;SDS011;29610;49.022;12.114;2023-02-01T01:57:31;10.17;;;5.10;;
18793;SDS011;29610;49.022;12.114;2023-02-01T02:00:05;11.70;;;5.20;;
18793;SDS011;29610;49.022;12.114;2023-02-01T02:02:39;9.07;;;4.70;;
18793;SDS011;29610;49.022;12.114;2023-02-01T02:05:13;11.53;;;4.37;;
18793;SDS011;29610;49.022;12.114;2023-02-01T02:07:48;8.80;;;4.10;;
18793;SDS011;29610;49.022;12.114;2023-02-01T02:10:23;10.87;;;4.90;;
18793;SDS011;29610;49.022;12.114;2023-02-01T02:13:12;8.63;;;4.00;;
18793;SDS011;29610;49.022;12.114;2023-02-01T02:15:45;8.47;;;4.07;;
18793;SDS011;29610;49.022;12.114;2023-02-01T02:18:30;8.00;;;4.30;;
18793;SDS011;29610;49.022;12.114;2023-02-01T02:21:15;9.47;;;4.77;;
18793;SDS011;29610;49.022;12.114;2023-02-01T02:24:08;6.60;;;3.60;;
18793;SDS011;29610;49.022;12.114;2023-02-01T02:27:23;8.77;;;4.37;;
18793;SDS011;29610;49.022;12.114;2023-02-01T02:33:30;7.80;;;3.90;;
18793;SDS011;29610;49.022;12.114;2023-02-01T02:36:34;14.10;;;4.10;;
18793;SDS011;29610;49.022;12.114;2023-02-01T02:39:15;10.30;;;4.63;;
18793;SDS011;29610;49.022;12.114;2023-02-01T02:42:00;9.17;;;4.40;;
18793;SDS011;29610;49.022;12.114;2023-02-01T02:44:59;9.13;;;3.97;;
18793;SDS011;29610;49.022;12.114;2023-02-01T02:47:54;8.10;;;3.73;;
18793;SDS011;29610;49.022;12.114;2023-02-01T02:50:34;9.60;;;4.10;;
18793;SDS011;29610;49.022;12.114;2023-02-01T02:53:24;8.13;;;4.03;;
18793;SDS011;29610;49.022;12.114;2023-02-01T02:56:17;12.17;;;5.43;;
18793;SDS011;29610;49.022;12.114;2023-02-01T02:59:06;10.37;;;4.17;;
18793;SDS011;29610;49.022;12.114;2023-02-01T03:01:59;8.77;;;4.03;;
18793;SDS011;29610;49.022;12.114;2023-02-01T03:04:46;9.60;;;4.50;;
18793;SDS011;29610;49.022;12.114;2023-02-01T03:10:33;11.00;;;4.30;;
18793;SDS011;29610;49.022;12.114;2023-02-01T03:13:16;11.60;;;4.10;;
18793;SDS011;29610;49.022;12.114;2023-02-01T03:15:57;9.20;;;4.37;;
18793;SDS011;29610;49.022;12.114;2023-02-01T03:18:33;10.47;;;4.30;;
18793;SDS011;29610;49.022;12.114;2023-02-01T03:21:10;8.37;;;3.97;;
18793;SDS011;29610;49.022;12.114;2023-02-01T03:23:47;9.03;;;4.30;;
18793;SDS011;29610;49.022;12.114;2023-02-01T03:26:20;10.10;;;4.10;;
18793;SDS011;29610;49.022;12.114;2023-02-01T03:28:55;7.70;;;3.70;;
18793;SDS011;29610;49.022;12.114;2023-02-01T03:31:36;7.47;;;3.43;;
18793;SDS011;29610;49.022;12.114;2023-02-01T03:34:05;7.30;;;3.30;;
18793;SDS011;29610;49.022;12.114;2023-02-01T03:36:37;9.80;;;4.67;;
18793;SDS011;29610;49.022;12.114;2023-02-01T03:39:15;9.37;;;4.77;;
18793;SDS011;29610;49.022;12.114;2023-02-01T03:41:53;7.73;;;4.27;;
18793;SDS011;29610;49.022;12.114;2023-02-01T03:44:26;8.67;;;4.33;;
18793;SDS011;29610;49.022;12.114;2023-02-01T03:47:02;12.03;;;4.63;;
18793;SDS011;29610;49.022;12.114;2023-02-01T03:49:36;10.07;;;3.87;;
18793;SDS011;29610;49.022;12.114;2023-02-01T03:52:11;8.50;;;4.07;;
18793;SDS011;29610;49.022;12.114;2023-02-01T03:54:46;9.67;;;4.80;;
18793;SDS011;29610;49.022;12.114;2023-02-01T03:57:18;10.87;;;4.00;;
18793;SDS011;29610;49.022;12.114;2023-02-01T03:59:55;8.07;;;4.23;;
18793;SDS011;29610;49.022;12.114;2023-02-01T04:02:39;11.23;;;3.70;;
18793;SDS011;29610;49.022;12.114;2023-02-01T04:05:08;8.10;;;3.70;;
18793;SDS011;29610;49.022;12.114;2023-02-01T04:07:42;7.10;;;3.60;;
18793;SDS011;29610;49.022;12.114;2023-02-01T04:10:13;10.80;;;4.90;;
18793;SDS011;29610;49.022;12.114;2023-02-01T04:12:45;7.90;;;3.70;;
18793;SDS011;29610;49.022;12.114;2023-02-01T04:15:14;7.30;;;3.47;;
18793;SDS011;29610;49.022;12.114;2023-02-01T04:17:42;10.30;;;3.97;;
18793;SDS011;29610;49.022;12.114;2023-02-01T04:20:11;10.60;;;4.30;;
18793;SDS011;29610;49.022;12.114;2023-02-01T04:22:40;7.80;;;3.93;;
18793;SDS011;29610;49.022;12.114;2023-02-01T04:25:08;7.80;;;3.93;;
18793;SDS011;29610;49.022;12.114;2023-02-01T04:27:38;9.00;;;4.63;;
18793;SDS011;29610;49.022;12.114;2023-02-01T04:30:08;8.60;;;4.10;;
18793;SDS011;29610;49.022;12.114;2023-02-01T04:32:37;8.27;;;4.10;;
18793;SDS011;29610;49.022;12.114;2023-02-01T04:35:07;10.73;;;4.53;;
18793;SDS011;29610;49.022;12.114;2023-02-01T04:37:38;8.50;;;3.63;;
18793;SDS011;29610;49.022;12.114;2023-02-01T04:40:07;9.10;;;4.33;;
18793;SDS011;29610;49.022;12.114;2023-02-01T04:42:38;10.37;;;3.70;;
18793;SDS011;29610;49.022;12.114;2023-02-01T04:45:07;10.30;;;3.47;;
18793;SDS011;29610;49.022;12.114;2023-02-01T04:47:37;8.30;;;3.40;;
18793;SDS011;29610;49.022;12.114;2023-02-01T04:50:05;10.93;;;3.37;;
18793;SDS011;29610;49.022;12.114;2023-02-01T04:52:37;8.27;;;4.30;;
18793;SDS011;29610;49.022;12.114;2023-02-01T04:55:06;8.53;;;3.10;;
18793;SDS011;29610;49.022;12.114;2023-02-01T04:57:35;6.37;;;2.83;;
18793;SDS011;29610;49.022;12.114;2023-02-01T05:00:07;7.37;;;3.43;;
18793;SDS011;29610;49.022;12.114;2023-02-01T05:02:38;6.90;;;3.37;;
18793;SDS011;29610;49.022;12.114;2023-02-01T05:05:07;10.57;;;3.53;;
18793;SDS011;29610;49.022;12.114;2023-02-01T05:07:36;7.80;;;3.37;;
18793;SDS011;29610;49.022;12.114;2023-02-01T05:10:05;7.90;;;3.57;;
18793;SDS011;29610;49.022;12.114;2023-02-01T05:12:35;6.73;;;3.10;;
18793;SDS011;29610;49.022;12.114;2023-02-01T05:15:23;6.30;;;2.80;;
18793;SDS011;29610;49.022;12.114;2023-02-01T05:17:51;8.30;;;3.30;;
18793;SDS011;29610;49.022;12.114;2023-02-01T05:20:20;8.37;;;3.63;;
18793;SDS011;29610;49.022;12.114;2023-02-01T05:22:49;6.17;;;2.70;;
18793;SDS011;29610;49.022;12.114;2023-02-01T05:25:18;6.83;;;3.20;;
18793;SDS011;29610;49.022;12.114;2023-02-01T05:27:46;8.60;;;3.13;;
18793;SDS011;29610;49.022;12.114;2023-02-01T05:30:15;7.67;;;3.63;;
18793;SDS011;29610;49.022;12.114;2023-02-01T05:32:45;6.00;;;2.40;;
18793;SDS011;29610;49.022;12.114;2023-02-01T05:35:17;6.77;;;2.83;;
18793;SDS011;29610;49.022;12.114;2023-02-01T05:37:48;5.97;;;2.90;;
18793;SDS011;29610;49.022;12.114;2023-02-01T05:40:16;6.20;;;3.03;;
18793;SDS011;29610;49.022;12.114;2023-02-01T05:42:45;6.60;;;2.37;;
18793;SDS011;29610;49.022;12.114;2023-02-01T05:45:14;6.17;;;2.60;;
18793;SDS011;29610;49.022;12.114;2023-02-01T05:47:42;7.60;;;2.00;;
18793;SDS011;29610;49.022;12.114;2023-02-01T05:50:12;6.40;;;2.77;;
18793;SDS011;29610;49.022;12.114;2023-02-01T05:52:41;6.00;;;2.40;;
18793;SDS011;29610;49.022;12.114;2023-02-01T05:55:10;6.00;;;2.30;;
18793;SDS011;29610;49.022;12.114;2023-02-01T05:57:39;9.73;;;3.60;;
18793;SDS011;29610;49.022;12.114;2023-02-01T06:00:08;9.33;;;2.77;;
18793;SDS011;29610;49.022;12.114;2023-02-01T06:02:38;7.20;;;2.70;;
18793;SDS011;29610;49.022;12.114;2023-02-01T06:05:07;7.80;;;3.00;;
18793;SDS011;29610;49.022;12.114;2023-02-01T06:07:37;6.97;;;2.60;;
18793;SDS011;29610;49.022;12.114;2023-02-01T06:10:06;5.53;;;2.07;;
18793;SDS011;29610;49.022;12.114;2023-02-01T06:12:37;5.20;;;2.20;;
18793;SDS011;29610;49.022;12.114;2023-02-01T06:15:06;6.57;;;2.40;;
18793;SDS011;29610;49.022;12.114;2023-02-01T06:17:36;6.67;;;2.93;;
18793;SDS011;29610;49.022;12.114;2023-02-01T06:20:06;8.20;;;2.70;;
18793;SDS011;29610;49.022;12.114;2023-02-01T06:22:39;5.60;;;2.13;;
18793;SDS011;29610;49.022;12.114;2023-02-01T06:25:09;6.17;;;2.67;;
18793;SDS011;29610;49.022;12.114;2023-02-01T06:27:38;6.17;;;2.70;;
18793;SDS011;29610;49.022;12.114;2023-02-01T06:30:07;6.33;;;2.80;;
18793;SDS011;29610;49.022;12.114;2023-02-01T06:32:37;6.20;;;2.83;;
18793;SDS011;29610;49.022;12.114;2023-02-01T06:35:07;5.90;;;2.53;;
18793;SDS011;29610;49.022;12.114;2023-02-01T06:37:39;8.90;;;3.10;;
18793;SDS011;29610;49.022;12.114;2023-02-01T06:40:08;6.83;;;2.57;;
18793;SDS011;29610;49.022;12.114;2023-02-01T06:42:38;7.27;;;2.70;;
18793;SDS011;29610;49.022;12.114;2023-02-01T06:45:07;7.03;;;3.23;;
18793;SDS011;29610;49.022;12.114;2023-02-01T06:47:36;7.00;;;2.93;;
18793;SDS011;29610;49.022;12.114;2023-02-01T06:50:05;6.40;;;2.90;;
18793;SDS011;29610;49.022;12.114;2023-02-01T06:52:35;6.87;;;2.93;;
18793;SDS011;29610;49.022;12.114;2023-02-01T06:55:05;8.33;;;3.87;;
18793;SDS011;29610;49.022;12.114;2023-02-01T06:57:35;8.97;;;3.10;;
18793;SDS011;29610;49.022;12.114;2023-02-01T07:00:04;6.27;;;2.93;;
18793;SDS011;29610;49.022;12.114;2023-02-01T07:02:33;7.50;;;3.27;;
18793;SDS011;29610;49.022;12.114;2023-02-01T07:05:02;7.10;;;2.73;;
18793;SDS011;29610;49.022;12.114;2023-02-01T07:07:31;7.07;;;2.67;;
18793;SDS011;29610;49.022;12.114;2023-02-01T07:10:00;7.40;;;3.70;;
18793;SDS011;29610;49.022;12.114;2023-02-01T07:12:30;5.87;;;2.53;;
18793;SDS011;29610;49.022;12.114;2023-02-01T07:14:58;6.33;;;3.07;;
18793;SDS011;29610;49.022;12.114;2023-02-01T07:17:28;8.33;;;3.53;;
18793;SDS011;29610;49.022;12.114;2023-02-01T07:19:57;6.43;;;2.87;;
18793;SDS011;29610;49.022;12.114;2023-02-01T07:22:26;6.40;;;2.50;;
18793;SDS011;29610;49.022;12.114;2023-02-01T07:24:55;9.43;;;3.40;;
18793;SDS011;29610;49.022;12.114;2023-02-01T07:27:24;7.50;;;3.27;;
18793;SDS011;29610;49.022;12.114;2023-02-01T07:29:54;8.03;;;4.50;;
18793;SDS011;29610;49.022;12.114;2023-02-01T07:32:23;7.33;;;3.60;;
18793;SDS011;29610;49.022;12.114;2023-02-01T07:34:51;8.90;;;3.40;;
18793;SDS011;29610;49.022;12.114;2023-02-01T07:37:20;9.93;;;3.20;;
18793;SDS011;29610;49.022;12.114;2023-02-01T07:39:50;8.53;;;3.53;;
18793;SDS011;29610;49.022;12.114;2023-02-01T07:42:19;12.20;;;5.03;;
18793;SDS011;29610;49.022;12.114;2023-02-01T07:44:48;9.63;;;5.03;;
18793;SDS011;29610;49.022;12.114;2023-02-01T07:47:21;7.90;;;3.80;;
18793;SDS011;29610;49.022;12.114;2023-02-01T07:49:50;13.93;;;3.70;;
18793;SDS011;29610;49.022;12.114;2023-02-01T07:52:22;6.73;;;3.23;;
18793;SDS011;29610;49.022;12.114;2023-02-01T07:54:51;7.13;;;3.80;;
18793;SDS011;29610;49.022;12.114;2023-02-01T07:57:22;9.33;;;4.60;;
18793;SDS011;29610;49.022;12.114;2023-02-01T07:59:51;9.90;;;4.10;;
18793;SDS011;29610;49.022;12.114;2023-02-01T08:02:42;11.20;;;5.63;;
18793;SDS011;29610;49.022;12.114;2023-02-01T08:05:10;8.20;;;4.50;;
18793;SDS011;29610;49.022;12.114;2023-02-01T08:07:39;8.93;;;4.30;;
18793;SDS011;29610;49.022;12.114;2023-02-01T08:10:08;10.20;;;4.10;;
18793;SDS011;29610;49.022;12.114;2023-02-01T08:12:38;7.57;;;3.30;;
18793;SDS011;29610;49.022;12.114;2023-02-01T08:15:07;8.00;;;3.83;;
18793;SDS011;29610;49.022;12.114;2023-02-01T08:17:37;11.03;;;3.87;;
18793;SDS011;29610;49.022;12.114;2023-02-01T08:20:08;11.67;;;5.00;;
18793;SDS011;29610;49.022;12.114;2023-02-01T08:22:40;11.30;;;3.90;;
18793;SDS011;29610;49.022;12.114;2023-02-01T08:25:11;10.70;;;3.80;;
18793;SDS011;29610;49.022;12.114;2023-02-01T08:27:41;9.80;;;4.60;;
18793;SDS011;29610;49.022;12.114;2023-02-01T08:30:10;9.07;;;4.27;;
18793;SDS011;29610;49.022;12.114;2023-02-01T08:32:40;7.57;;;3.93;;
18793;SDS011;29610;49.022;12.114;2023-02-01T08:35:11;11.20;;;4.00;;
18793;SDS011;29610;49.022;12.114;2023-02-01T08:37:43;9.60;;;4.70;;
18793;SDS011;29610;49.022;12.114;2023-02-01T08:40:11;7.60;;;4.13;;
18793;SDS011;29610;49.022;12.114;2023-02-01T08:42:41;6.60;;;3.33;;
18793;SDS011;29610;49.022;12.114;2023-02-01T08:45:19;9.20;;;3.50;;
18793;SDS011;29610;49.022;12.114;2023-02-01T08:47:50;11.00;;;3.97;;
18793;SDS011;29610;49.022;12.114;2023-02-01T08:50:21;8.40;;;3.43;;
18793;SDS011;29610;49.022;12.114;2023-02-01T08:52:52;8.27;;;3.90;;
18793;SDS011;29610;49.022;12.114;2023-02-01T08:55:21;9.33;;;2.87;;
18793;SDS011;29610;49.022;12.114;2023-02-01T08:57:49;11.30;;;3.40;;
18793;SDS011;29610;49.022;12.114;2023-02-01T09:00:18;7.37;;;2.80;;
18793;SDS011;29610;49.022;12.114;2023-02-01T09:02:47;6.30;;;2.93;;
18793;SDS011;29610;49.022;12.114;2023-02-01T09:05:16;7.00;;;2.80;;
18793;SDS011;29610;49.022;12.114;2023-02-01T09:07:50;11.90;;;3.10;;
18793;SDS011;29610;49.022;12.114;2023-02-01T09:10:18;8.87;;;2.60;;
18793;SDS011;29610;49.022;12.114;2023-02-01T09:13:00;7.73;;;3.00;;
18793;SDS011;29610;49.022;12.114;2023-02-01T09:15:30;5.57;;;2.30;;
18793;SDS011;29610;49.022;12.114;2023-02-01T09:17:59;5.70;;;2.20;;
18793;SDS011;29610;49.022;12.114;2023-02-01T09:20:28;5.57;;;2.00;;
18793;SDS011;29610;49.022;12.114;2023-02-01T09:22:58;9.43;;;2.47;;
18793;SDS011;29610;49.022;12.114;2023-02-01T09:25:26;7.40;;;1.73;;
18793;SDS011;29610;49.022;12.114;2023-02-01T09:27:55;6.37;;;2.10;;
18793;SDS011;29610;49.022;12.114;2023-02-01T09:30:23;5.77;;;2.00;;
18793;SDS011;29610;49.022;12.114;2023-02-01T09:32:53;6.17;;;2.23;;
18793;SDS011;29610;49.022;12.114;2023-02-01T09:35:22;8.10;;;2.40;;
18793;SDS011;29610;49.022;12.114;2023-02-01T09:37:51;7.20;;;1.90;;
18793;SDS011;29610;49.022;12.114;2023-02-01T09:40:22;5.37;;;2.10;;
18793;SDS011;29610;49.022;12.114;2023-02-01T09:42:56;9.07;;;2.10;;
18793;SDS011;29610;49.022;12.114;2023-02-01T09:45:42;5.33;;;1.90;;
18793;SDS011;29610;49.022;12.114;2023-02-01T09:48:24;6.80;;;2.33;;
18793;SDS011;29610;49.022;12.114;2023-02-01T09:50:59;6.83;;;2.50;;
18793;SDS011;29610;49.022;12.114;2023-02-01T09:53:33;8.60;;;2.03;;
18793;SDS011;29610;49.022;12.114;2023-02-01T09:56:10;5.67;;;2.00;;
18793;SDS011;29610;49.022;12.114;2023-02-01T09:58:49;5.57;;;1.97;;
18793;SDS011;29610;49.022;12.114;2023-02-01T10:01:26;5.43;;;2.40;;
18793;SDS011;29610;49.022;12.114;2023-02-01T10:03:57;6.53;;;2.43;;
18793;SDS011;29610;49.022;12.114;2023-02-01T10:06:37;5.50;;;2.30;;
18793;SDS011;29610;49.022;12.114;2023-02-01T10:09:31;6.03;;;2.50;;
18793;SDS011;29610;49.022;12.114;2023-02-01T10:12:40;5.87;;;2.10;;
18793;SDS011;29610;49.022;12.114;2023-02-01T10:15:40;8.83;;;2.20;;
18793;SDS011;29610;49.022;12.114;2023-02-01T10:18:39;7.13;;;3.20;;
18793;SDS011;29610;49.022;12.114;2023-02-01T10:21:54;8.47;;;2.60;;
18793;SDS011;29610;49.022;12.114;2023-02-01T10:24:32;6.50;;;2.90;;
18793;SDS011;29610;49.022;12.114;2023-02-01T10:27:16;6.27;;;3.10;;
18793;SDS011;29610;49.022;12.114;2023-02-01T10:29:51;7.80;;;2.90;;
18793;SDS011;29610;49.022;12.114;2023-02-01T10:32:28;14.53;;;3.57;;
18793;SDS011;29610;49.022;12.114;2023-02-01T10:35:02;11.20;;;3.70;;
18793;SDS011;29610;49.022;12.114;2023-02-01T10:37:40;7.80;;;3.47;;
18793;SDS011;29610;49.022;12.114;2023-02-01T10:40:15;10.37;;;3.30;;
18793;SDS011;29610;49.022;12.114;2023-02-01T10:42:48;9.00;;;4.23;;
18793;SDS011;29610;49.022;12.114;2023-02-01T10:45:22;13.20;;;4.40;;
18793;SDS011;29610;49.022;12.114;2023-02-01T10:47:55;9.10;;;4.47;;
18793;SDS011;29610;49.022;12.114;2023-02-01T10:50:31;8.53;;;3.70;;
18793;SDS011;29610;49.022;12.114;2023-02-01T10:53:06;8.23;;;2.97;;
18793;SDS011;29610;49.022;12.114;2023-02-01T10:55:48;7.80;;;2.97;;
18793;SDS011;29610;49.022;12.114;2023-02-01T10:58:20;9.17;;;3.57;;
18793;SDS011;29610;49.022;12.114;2023-02-01T11:00:57;7.57;;;2.73;;
18793;SDS011;29610;49.022;12.114;2023-02-01T11:03:39;7.37;;;2.83;;
18793;SDS011;29610;49.022;12.114;2023-02-01T11:06:11;8.73;;;3.10;;
18793;SDS011;29610;49.022;12.114;2023-02-01T11:08:50;11.53;;;2.40;;
18793;SDS011;29610;49.022;12.114;2023-02-01T11:11:21;12.60;;;2.97;;
18793;SDS011;29610;49.022;12.114;2023-02-01T11:13:52;8.67;;;2.30;;
18793;SDS011;29610;49.022;12.114;2023-02-01T11:16:30;15.43;;;3.20;;
18793;SDS011;29610;49.022;12.114;2023-02-01T11:19:03;10.90;;;3.23;;
18793;SDS011;29610;49.022;12.114;2023-02-01T11:21:33;9.90;;;3.50;;
18793;SDS011;29610;49.022;12.114;2023-02-01T11:24:05;9.30;;;2.70;;
18793;SDS011;29610;49.022;12.114;2023-02-01T11:26:49;6.03;;;2.37;;
18793;SDS011;29610;49.022;12.114;2023-02-01T11:29:22;9.30;;;3.10;;
18793;SDS011;29610;49.022;12.114;2023-02-01T11:31:57;12.07;;;2.97;;
18793;SDS011;29610;49.022;12.114;2023-02-01T11:34:28;9.73;;;3.20;;
18793;SDS011;29610;49.022;12.114;2023-02-01T11:37:04;9.40;;;2.60;;
18793;SDS011;29610;49.022;12.114;2023-02-01T11:39:52;16.97;;;3.30;;
18793;SDS011;29610;49.022;12.114;2023-02-01T11:42:24;10.00;;;2.97;;
18793;SDS011;29610;49.022;12.114;2023-02-01T11:45:09;8.43;;;2.67;;
18793;SDS011;29610;49.022;12.114;2023-02-01T11:47:49;7.80;;;2.70;;
18793;SDS011;29610;49.022;12.114;2023-02-01T11:50:25;11.93;;;2.97;;
18793;SDS011;29610;49.022;12.114;2023-02-01T11:53:08;8.40;;;3.30;;
18793;SDS011;29610;49.022;12.114;2023-02-01T11:55:59;7.83;;;2.50;;
18793;SDS011;29610;49.022;12.114;2023-02-01T11:58:58;7.13;;;2.77;;
18793;SDS011;29610;49.022;12.114;2023-02-01T12:01:52;10.33;;;2.10;;
18793;SDS011;29610;49.022;12.114;2023-02-01T12:04:54;8.57;;;3.10;;
18793;SDS011;29610;49.022;12.114;2023-02-01T12:07:50;8.67;;;2.70;;
18793;SDS011;29610;49.022;12.114;2023-02-01T12:10:37;10.50;;;3.47;;
18793;SDS011;29610;49.022;12.114;2023-02-01T12:13:28;8.63;;;2.60;;
18793;SDS011;29610;49.022;12.114;2023-02-01T12:16:19;10.77;;;3.20;;
18793;SDS011;29610;49.022;12.114;2023-02-01T12:19:04;11.23;;;2.93;;
18793;SDS011;29610;49.022;12.114;2023-02-01T12:22:03;8.73;;;3.10;;
18793;SDS011;29610;49.022;12.114;2023-02-01T12:25:03;8.93;;;2.67;;
18793;SDS011;29610;49.022;12.114;2023-02-01T12:27:51;10.10;;;2.60;;
18793;SDS011;29610;49.022;12.114;2023-02-01T12:30:54;13.03;;;2.17;;
18793;SDS011;29610;49.022;12.114;2023-02-01T12:33:48;7.27;;;1.93;;
18793;SDS011;29610;49.022;12.114;2023-02-01T12:36:39;8.83;;;2.27;;
18793;SDS011;29610;49.022;12.114;2023-02-01T12:39:22;13.23;;;2.50;;
18793;SDS011;29610;49.022;12.114;2023-02-01T12:42:00;10.50;;;2.40;;
18793;SDS011;29610;49.022;12.114;2023-02-01T12:44:42;8.27;;;2.20;;
18793;SDS011;29610;49.022;12.114;2023-02-01T12:47:20;8.70;;;2.50;;
18793;SDS011;29610;49.022;12.114;2023-02-01T12:49:58;10.20;;;2.73;;
18793;SDS011;29610;49.022;12.114;2023-02-01T12:52:35;8.07;;;2.33;;
18793;SDS011;29610;49.022;12.114;2023-02-01T12:55:15;6.13;;;2.03;;
18793;SDS011;29610;49.022;12.114;2023-02-01T12:57:50;11.90;;;3.27;;
18793;SDS011;29610;49.022;12.114;2023-02-01T13:00:27;9.70;;;4.30;;
18793;SDS011;29610;49.022;12.114;2023-02-01T13:03:05;13.10;;;2.77;;
18793;SDS011;29610;49.022;12.114;2023-02-01T13:05:51;7.90;;;2.67;;
18793;SDS011;29610;49.022;12.114;2023-02-01T13:08:30;7.57;;;2.50;;
18793;SDS011;29610;49.022;12.114;2023-02-01T13:11:15;12.70;;;2.90;;
18793;SDS011;29610;49.022;12.114;2023-02-01T13:13:53;11.70;;;4.10;;
18793;SDS011;29610;49.022;12.114;2023-02-01T13:16:31;10.37;;;2.93;;
18793;SDS011;29610;49.022;12.114;2023-02-01T13:19:12;6.67;;;2.70;;
18793;SDS011;29610;49.022;12.114;2023-02-01T13:21:48;6.17;;;2.20;;
18793;SDS011;29610;49.022;12.114;2023-02-01T13:24:29;7.70;;;2.90;;
18793;SDS011;29610;49.022;12.114;2023-02-01T13:27:08;7.47;;;2.47;;
18793;SDS011;29610;49.022;12.114;2023-02-01T13:29:41;8.10;;;2.30;;
18793;SDS011;29610;49.022;12.114;2023-02-01T13:35:46;8.77;;;2.70;;
18793;SDS011;29610;49.022;12.114;2023-02-01T13:38:54;16.67;;;3.27;;
18793;SDS011;29610;49.022;12.114;2023-02-01T13:41:57;8.83;;;3.10;;
18793;SDS011;29610;49.022;12.114;2023-02-01T13:44:31;13.50;;;3.67;;
18793;SDS011;29610;49.022;12.114;2023-02-01T13:47:11;7.83;;;2.80;;
18793;SDS011;29610;49.022;12.114;2023-02-01T13:49:50;11.83;;;2.90;;
18793;SDS011;29610;49.022;12.114;2023-02-01T13:52:24;12.33;;;3.33;;
18793;SDS011;29610;49.022;12.114;2023-02-01T13:55:14;11.73;;;2.40;;
18793;SDS011;29610;49.022;12.114;2023-02-01T13:58:11;10.90;;;2.73;;
18793;SDS011;29610;49.022;12.114;2023-02-01T14:00:48;8.50;;;2.90;;
18793;SDS011;29610;49.022;12.114;2023-02-01T14:03:19;11.97;;;2.90;;
18793;SDS011;29610;49.022;12.114;2023-02-01T14:06:00;12.57;;;3.60;;
18793;SDS011;29610;49.022;12.114;2023-02-01T14:08:46;10.60;;;2.93;;
18793;SDS011;29610;49.022;12.114;2023-02-01T14:11:44;14.50;;;3.23;;
18793;SDS011;29610;49.022;12.114;2023-02-01T14:23:18;10.90;;;2.20;;
18793;SDS011;29610;49.022;12.114;2023-02-01T14:26:08;9.17;;;2.57;;
18793;SDS011;29610;49.022;12.114;2023-02-01T14:28:46;16.13;;;3.00;;
18793;SDS011;29610;49.022;12.114;2023-02-01T14:34:22;10.33;;;3.00;;
18793;SDS011;29610;49.022;12.114;2023-02-01T14:37:02;11.10;;;2.23;;
18793;SDS011;29610;49.022;12.114;2023-02-01T14:39:40;9.87;;;2.20;;
18793;SDS011;29610;49.022;12.114;2023-02-01T14:42:25;6.93;;;2.00;;
18793;SDS011;29610;49.022;12.114;2023-02-01T14:51:14;8.80;;;2.37;;
18793;SDS011;29610;49.022;12.114;2023-02-01T14:53:46;15.87;;;6.63;;
18793;SDS011;29610;49.022;12.114;2023-02-01T14:56:17;9.50;;;2.60;;
18793;SDS011;29610;49.022;12.114;2023-02-01T14:58:50;9.00;;;2.90;;
18793;SDS011;29610;49.022;12.114;2023-02-01T15:01:25;14.03;;;2.70;;
18793;SDS011;29610;49.022;12.114;2023-02-01T15:04:00;9.43;;;3.20;;
18793;SDS011;29610;49.022;12.114;2023-02-01T15:06:36;16.20;;;2.70;;
18793;SDS011;29610;49.022;12.114;2023-02-01T15:09:08;7.73;;;2.40;;
18793;SDS011;29610;49.022;12.114;2023-02-01T15:11:58;9.63;;;2.23;;
18793;SDS011;29610;49.022;12.114;2023-02-01T15:14:31;8.60;;;2.40;;
18793;SDS011;29610;49.022;12.114;2023-02-01T15:17:02;7.30;;;2.30;;
18793;SDS011;29610;49.022;12.114;2023-02-01T15:19:52;8.00;;;2.63;;
18793;SDS011;29610;49.022;12.114;2023-02-01T15:22:23;7.90;;;1.60;;
18793;SDS011;29610;49.022;12.114;2023-02-01T15:24:55;10.87;;;2.57;;
18793;SDS011;29610;49.022;12.114;2023-02-01T15:27:27;10.20;;;2.57;;
18793;SDS011;29610;49.022;12.114;2023-02-01T15:30:04;9.90;;;2.37;;
18793;SDS011;29610;49.022;12.114;2023-02-01T15:32:35;13.07;;;2.83;;
18793;SDS011;29610;49.022;12.114;2023-02-01T15:41:08;12.73;;;3.03;;
18793;SDS011;29610;49.022;12.114;2023-02-01T15:43:42;8.40;;;2.20;;
18793;SDS011;29610;49.022;12.114;2023-02-01T15:46:31;12.33;;;2.93;;
18793;SDS011;29610;49.022;12.114;2023-02-01T15:49:03;16.40;;;2.30;;
18793;SDS011;29610;49.022;12.114;2023-02-01T15:51:46;15.27;;;3.43;;
18793;SDS011;29610;49.022;12.114;2023-02-01T15:54:18;12.77;;;2.67;;
18793;SDS011;29610;49.022;12.114;2023-02-01T15:56:54;11.43;;;2.50;;